• Join FlightAware (Why Join?)
  • Login
  • US Flag 
12:41AM EDT


 

Airport Tracker/Info


-or-


 

Live Flight TrackerFlight Track Log ✈ N319TB ✈ 26-Jul-2013 ✈ KPDK - KJQF

Flight Track Log - Related Links

Times and Time Zones

All times are in EDT time to prevent confusion due to time zone crossing. See the N319TB flight status page for this flight to view local times or setup timezone preferences in your user account.

Time Position Orientation Groundspeed Altitude Reporting Facility
EDT Latitude Longitude Course Direction KTS MPH feet Rate Location/Type
07:27PM 33.8667 -84.2500 90° East 159 183 2,600  Level Atlanta TRACON
07:28PM 33.8667 -84.2000 90° East 191 220 3,500 1,440 Climbing Atlanta TRACON
07:30PM 33.8500 -84.1000 101° East 164 189 6,900 1,560 Climbing Atlanta TRACON
07:31PM 33.8631 -84.0489 73° East 166 191 8,200 1,020 Climbing Atlanta Center
07:32PM 33.8736 -83.9914 78° East 182 209 9,000 360 Climbing Atlanta Center
07:33PM 33.8944 -83.9161 72° East 204 235 9,000 420 Level Atlanta Center
07:34PM 33.9089 -83.8436 76° East 230 265 9,900 960 Climbing Atlanta Center
07:35PM 33.9214 -83.7758 77° East 217 250 11,000 540 Climbing Atlanta Center
07:36PM 33.9378 -83.7008 75° East 218 251 11,000  Level Atlanta Center
07:37PM 33.9542 -83.6181 77° East 241 277 11,000  Level Atlanta Center
07:38PM 33.9706 -83.5428 75° East 247 284 11,000 840 Level Atlanta Center
07:39PM 33.9850 -83.4650 77° East 247 284 12,700 1,320 Climbing Atlanta Center
07:40PM 33.9992 -83.4022 75° East 207 238 13,700 960 Climbing Atlanta Center
07:41PM 34.0114 -83.3347 78° East 200 230 14,700 600 Climbing Atlanta Center
07:42PM 34.0256 -83.2619 77° East 209 241 15,000 900 Climbing Atlanta Center
07:43PM 34.0375 -83.1939 78° East 209 241 16,500 960 Climbing Atlanta Center
07:44PM 34.0539 -83.1236 74° East 209 241 17,000 240 Climbing Atlanta Center
07:45PM 34.0719 -83.0381 76° East 222 255 17,000  Level Atlanta Center
07:46PM 34.0900 -82.9478 76° East 253 291 17,000 -120 Level Atlanta Center
07:47PM 34.1081 -82.8647 75° East 258 297 16,800 -480 Descending Atlanta Center
07:48PM 34.1258 -82.7692 77° East 275 316 16,100 -540 Descending Atlanta Center
07:49PM 34.1458 -82.6783 75° East 280 322 15,800 -360 Descending Atlanta Center
07:50PM 34.1675 -82.5850 74° East 280 322 15,400 -540 Descending Atlanta Center
07:51PM 34.1833 -82.4969 78° East 280 322 14,800 -600 Descending Atlanta Center
07:52PM 34.2008 -82.4189 75° East 263 303 14,200 -600 Descending Atlanta Center
07:53PM 34.2125 -82.3433 79° East 236 272 13,600 -660 Descending Atlanta Center
07:54PM 34.2281 -82.2650 76° East 236 272 12,900 -660 Descending Atlanta Center
07:55PM 34.2456 -82.1792 76° East 241 277 12,300 -900 Descending Atlanta Center
07:56PM 34.2883 -82.1103 53° Northeast 248 285 11,200 -660 Descending Atlanta Center
07:57PM 34.3353 -82.0414 50° Northeast 254 292 11,000 -120 Descending Atlanta Center
07:58PM 34.3886 -81.9847 41° Northeast 249 287 11,000  Level Atlanta Center
07:59PM 34.4333 -81.9233 49° Northeast 243 280 11,000  Level Atlanta Center
08:00PM 34.4806 -81.8667 45° Northeast 243 280 11,000  Level Atlanta Center
08:01PM 34.5233 -81.8125 46° Northeast 226 260 11,000  Level Atlanta Center
08:02PM 34.5681 -81.7508 49° Northeast 226 260 11,000  Level Atlanta Center
08:02PM 34.5947 -81.7172 46° Northeast 257 296 11,000  Level Atlanta Center
08:03PM 34.6497 -81.6553 43° Northeast 255 293 11,000  Level Atlanta Center
08:04PM 34.6883 -81.6036 48° Northeast 250 288 11,000  Level Atlanta Center
08:05PM 34.7128 -81.5750 44° Northeast 246 283 11,000  Level Atlanta Center
08:05PM 34.7411 -81.5339 50° Northeast 245 282 11,000  Level Atlanta Center
08:06PM 34.7900 -81.4717 46° Northeast 246 283 11,000  Level Atlanta Center
08:07PM 34.8428 -81.4017 47° Northeast 247 284 11,000  Level Atlanta Center
08:08PM 34.8894 -81.3419 46° Northeast 248 285 11,000  Level Atlanta Center
08:09PM 34.9342 -81.2847 46° Northeast 249 287 11,000  Level Atlanta Center
08:10PM 34.9869 -81.2169 46° Northeast 256 295 11,000 -120 Level Atlanta Center
08:11PM 35.0375 -81.1519 46° Northeast 262 302 10,800 -360 Descending Atlanta Center
08:12PM 35.0942 -81.0789 47° Northeast 262 302 10,300 -480 Descending Atlanta Center
08:14PM 35.1469 -81.0161 44° Northeast 259 298 9,900 -420 Descending Atlanta Center
08:15PM 35.2014 -80.9428 48° Northeast 260 299 9,500 -480 Descending Atlanta Center
08:16PM 35.2439 -80.8931 44° Northeast 225 259 9,000 -780 Descending Atlanta Center
08:17PM 35.2864 -80.8381 47° Northeast 214 246 8,100 -840 Descending Atlanta Center
08:18PM 35.3225 -80.7881 48° Northeast 211 243 7,300 -1,020 Descending Atlanta Center
08:19PM 35.3586 -80.7281 54° Northeast 199 229 5,900 -1,380 Descending Atlanta Center
08:20PM 35.3753 -80.6536 75° East 194 223 4,200 -1,620 Descending Atlanta Center
08:21PM 35.3931 -80.6122 62° Northeast 200 230 3,000 -720 Descending Atlanta Center
08:22PM 35.4389 -80.6128 359° North 158 182 3,000  Level Atlanta Center
08:23PM 35.4808 -80.6239 348° North 146 168 3,000  Level Atlanta Center
08:24PM 35.4906 -80.6692 285° West 117 135 3,000 -240 Level Atlanta Center
08:25PM 35.4703 -80.6906 221° Southwest 100 115 2,500 -720 Descending Atlanta Center
08:26PM 35.4414 -80.6994 194° South 112 129 1,600 -720 Descending Atlanta Center
08:27PM 35.4142 -80.7031 186° South 103 119 1,200 -240 Descending Atlanta Center
08:28PM 35.4039 -80.7061 194° South 103 119 1,200  Level Atlanta Center
08:30PM 35.4039 -80.7061 219° Southwest 103 119 1,200  Level Atlanta Center